Time;durP1;ratioP1;P1;durP2;ratioP2;P2;SDS_P1;SDS_P2;PMS_P1;PMS_P2;Temp;Humidity;BMP_temperature;BMP_pressure;BME280_temperature;BME280_humidity;BME280_pressure;Samples;Min_cycle;Max_cycle;Signal;HPM_P1;HPM_P2
2023/08/07 00:00:42;;;;;;;8.35;3.70;;;;;;;24.50;62.65;99418.75;5019812;28;20045;-45
2023/08/07 00:03:08;;;;;;;5.32;3.63;;;;;;;24.63;62.55;99442.34;5010065;28;20057;-46
2023/08/07 00:05:35;;;;;;;6.60;3.60;;;;;;;24.64;62.67;99444.03;5024124;28;20486;-44
2023/08/07 00:08:00;;;;;;;5.20;3.38;;;;;;;24.64;62.46;99441.38;5010050;28;20153;-44
2023/08/07 00:10:26;;;;;;;6.38;3.33;;;;;;;24.60;62.49;99440.78;5020211;28;20033;-43
2023/08/07 00:12:52;;;;;;;8.95;3.50;;;;;;;24.62;62.52;99443.31;5026627;28;20049;-47
2023/08/07 00:15:18;;;;;;;6.22;3.72;;;;;;;24.59;62.60;99443.63;5017684;28;20483;-45
2023/08/07 00:17:44;;;;;;;5.13;3.78;;;;;;;24.45;62.99;99428.97;5026148;28;20045;-41
2023/08/07 00:20:10;;;;;;;4.85;3.90;;;;;;;24.58;62.86;99447.25;5034353;28;20100;-44
2023/08/07 00:22:37;;;;;;;3.88;3.30;;;;;;;24.55;62.84;99444.91;5028215;28;20048;-43
2023/08/07 00:25:03;;;;;;;8.05;3.83;;;;;;;24.50;63.04;99450.63;5027641;28;20045;-42
2023/08/07 00:27:29;;;;;;;5.93;3.35;;;;;;;24.32;63.04;99424.03;5019290;28;20077;-41
2023/08/07 00:29:55;;;;;;;6.43;3.65;;;;;;;24.43;63.28;99445.09;5025796;28;20073;-43
2023/08/07 00:32:21;;;;;;;10.27;4.75;;;;;;;24.41;63.75;99447.06;5026560;28;20456;-44
2023/08/07 00:34:47;;;;;;;8.07;4.72;;;;;;;24.35;64.22;99444.13;5024215;28;20041;-42
2023/08/07 00:37:13;;;;;;;10.75;4.30;;;;;;;24.30;64.85;99454.38;5024315;28;20037;-45
2023/08/07 00:39:39;;;;;;;8.18;4.20;;;;;;;24.28;64.76;99443.06;5028004;28;20037;-42
2023/08/07 00:42:05;;;;;;;5.85;3.97;;;;;;;24.24;64.75;99442.50;5027718;28;20099;-46
2023/08/07 00:44:31;;;;;;;7.03;4.00;;;;;;;24.10;64.68;99423.50;5026489;28;20505;-41
2023/08/07 00:46:58;;;;;;;8.23;3.90;;;;;;;24.21;64.85;99441.94;5021897;28;20143;-43
2023/08/07 00:49:24;;;;;;;5.35;4.00;;;;;;;24.19;64.91;99439.44;4998913;28;20425;-42
2023/08/07 00:51:50;;;;;;;10.10;4.40;;;;;;;24.07;64.97;99422.00;5043185;28;20034;-44
2023/08/07 00:54:18;;;;;;;6.45;4.15;;;;;;;24.14;65.27;99440.81;5026513;28;20420;-43
2023/08/07 00:56:44;;;;;;;8.77;5.07;;;;;;;24.13;65.49;99447.13;5005878;28;20472;-44
2023/08/07 00:59:11;;;;;;;9.45;4.25;;;;;;;24.09;65.83;99441.25;4993035;28;20069;-42
2023/08/07 01:01:37;;;;;;;6.43;3.72;;;;;;;24.06;65.77;99441.56;5025427;28;20075;-41
2023/08/07 01:04:03;;;;;;;7.22;4.05;;;;;;;24.04;65.75;99438.19;5025786;28;20087;-41
2023/08/07 01:06:29;;;;;;;8.98;3.85;;;;;;;24.04;65.71;99443.50;5024764;28;20064;-46
2023/08/07 01:08:55;;;;;;;5.75;3.67;;;;;;;24.04;65.68;99432.88;5027551;28;20045;-42
2023/08/07 01:11:22;;;;;;;4.53;3.65;;;;;;;24.02;65.45;99435.66;5026291;28;20034;-45
2023/08/07 01:14:27;;;;;;;8.98;4.45;;;;;;;23.96;65.73;99424.81;5012921;28;20033;-44
2023/08/07 01:17:06;;;;;;;11.00;4.32;;;;;;;23.97;66.07;99426.50;5019881;28;20053;-45
2023/08/07 01:19:34;;;;;;;5.25;3.70;;;;;;;23.94;66.19;99424.94;5010974;28;20128;-43
2023/08/07 01:22:14;;;;;;;6.68;3.92;;;;;;;23.90;65.96;99423.56;5029757;28;20045;-43
2023/08/07 01:24:43;;;;;;;9.55;4.75;;;;;;;23.90;66.04;99417.41;5027077;28;20049;-42
2023/08/07 01:27:18;;;;;;;8.32;4.55;;;;;;;23.87;66.19;99418.53;5028351;28;20414;-45
2023/08/07 01:29:58;;;;;;;10.07;4.53;;;;;;;23.85;66.38;99419.66;5029906;28;20405;-43
2023/08/07 01:33:17;;;;;;;8.40;5.15;;;;;;;23.70;67.00;99405.16;5034018;28;20092;-45
2023/08/07 01:35:53;;;;;;;8.80;4.97;;;;;;;23.74;67.53;99417.16;4968871;28;20045;-43
2023/08/07 01:38:21;;;;;;;6.60;4.05;;;;;;;23.71;67.70;99415.63;5022727;28;20049;-46
2023/08/07 01:40:48;;;;;;;9.25;4.15;;;;;;;23.71;67.23;99420.13;5028710;28;20038;-47
2023/08/07 01:43:14;;;;;;;7.88;4.80;;;;;;;23.70;67.41;99418.44;5013086;28;20880;-44
2023/08/07 01:45:39;;;;;;;5.75;4.07;;;;;;;23.69;67.72;99420.25;5025647;28;20132;-47
2023/08/07 01:48:07;;;;;;;8.27;5.10;;;;;;;23.66;67.81;99414.41;5022516;28;20037;-42
2023/08/07 01:50:34;;;;;;;10.48;5.70;;;;;;;23.45;68.12;99387.97;5024540;28;20040;-45
2023/08/07 01:53:02;;;;;;;7.85;5.25;;;;;;;23.56;68.52;99415.22;5055703;28;20041;-44
2023/08/07 01:55:28;;;;;;;8.97;5.20;;;;;;;23.54;68.80;99403.09;5029391;28;20033;-45
2023/08/07 01:57:54;;;;;;;8.82;6.03;;;;;;;23.49;68.90;99413.28;5030219;28;20060;-44
2023/08/07 02:00:20;;;;;;;13.57;5.50;;;;;;;23.36;69.29;99396.78;5027347;28;20041;-46
2023/08/07 02:02:46;;;;;;;9.57;5.40;;;;;;;23.46;69.72;99416.22;5025513;28;20512;-43
2023/08/07 02:05:13;;;;;;;9.82;6.28;;;;;;;23.45;69.97;99411.84;5021357;28;20071;-42
2023/08/07 02:07:41;;;;;;;8.93;4.90;;;;;;;23.41;70.22;99410.47;5012710;28;20429;-43
2023/08/07 02:10:07;;;;;;;14.60;7.88;;;;;;;23.24;70.31;99388.13;4993727;28;20049;-43
2023/08/07 02:12:33;;;;;;;10.43;6.07;;;;;;;23.36;70.60;99415.34;5024457;28;20115;-45
2023/08/07 02:15:04;;;;;;;10.00;5.45;;;;;;;23.32;70.72;99417.44;5027954;28;20068;-45
2023/08/07 02:17:37;;;;;;;11.25;6.28;;;;;;;23.30;70.78;99413.25;5028278;28;20045;-43
2023/08/07 02:20:04;;;;;;;10.48;5.03;;;;;;;23.15;70.96;99396.91;5011295;28;20516;-44
2023/08/07 02:22:32;;;;;;;11.23;6.45;;;;;;;23.26;70.85;99412.69;4987156;28;20068;-42
2023/08/07 02:24:58;;;;;;;6.80;5.05;;;;;;;23.25;71.01;99408.38;5029202;28;20071;-42
2023/08/07 02:27:24;;;;;;;6.82;4.68;;;;;;;23.26;71.05;99409.22;5028608;28;20060;-43
2023/08/07 02:29:53;;;;;;;6.90;4.97;;;;;;;23.13;70.84;99393.59;5028851;28;20034;-42
2023/08/07 02:32:20;;;;;;;9.43;4.60;;;;;;;23.26;70.88;99411.84;5023055;28;20086;-43
2023/08/07 02:34:46;;;;;;;7.93;5.35;;;;;;;23.16;70.82;99402.09;5027419;28;20033;-43
2023/08/07 02:37:12;;;;;;;7.93;4.82;;;;;;;23.26;71.23;99418.00;5026836;28;20048;-43
2023/08/07 02:39:38;;;;;;;8.52;4.78;;;;;;;23.27;70.92;99417.03;5011180;28;20034;-44
2023/08/07 02:42:04;;;;;;;7.93;5.47;;;;;;;23.27;71.47;99409.06;5009971;28;20607;-48
2023/08/07 02:44:30;;;;;;;7.65;5.30;;;;;;;23.27;71.54;99416.19;5028178;28;20037;-47
2023/08/07 02:46:55;;;;;;;9.18;4.90;;;;;;;23.27;71.38;99408.22;5026028;28;20448;-44
2023/08/07 02:49:21;;;;;;;6.90;4.85;;;;;;;23.28;71.19;99412.56;5027458;28;20087;-45
2023/08/07 02:51:48;;;;;;;8.70;5.32;;;;;;;23.28;71.07;99412.56;5024131;28;20057;-45
2023/08/07 02:54:14;;;;;;;8.57;5.18;;;;;;;23.31;71.33;99414.94;5027338;28;20539;-45
2023/08/07 02:56:41;;;;;;;7.72;4.88;;;;;;;23.30;71.46;99418.56;5029210;28;20038;-44
2023/08/07 02:59:07;;;;;;;6.07;4.53;;;;;;;23.31;71.36;99418.41;5027680;28;20528;-47
2023/08/07 03:01:33;;;;;;;8.20;5.05;;;;;;;23.34;71.40;99412.00;5023719;28;20038;-46
2023/08/07 03:03:59;;;;;;;10.98;4.60;;;;;;;23.36;71.30;99416.19;5025641;28;20520;-47
2023/08/07 03:06:25;;;;;;;10.88;5.22;;;;;;;23.36;70.72;99410.88;5025424;28;20520;-46
2023/08/07 03:08:51;;;;;;;6.22;4.85;;;;;;;23.41;70.61;99410.47;5027435;28;20516;-46
2023/08/07 03:11:17;;;;;;;8.60;4.93;;;;;;;23.43;70.45;99419.13;5027196;28;20083;-42
2023/08/07 03:13:44;;;;;;;7.90;5.22;;;;;;;23.28;70.50;99378.91;5006276;28;20524;-44
2023/08/07 03:16:10;;;;;;;6.78;4.50;;;;;;;23.22;70.64;99369.72;5027289;28;20037;-46
2023/08/07 03:18:36;;;;;;;8.75;4.93;;;;;;;23.45;71.14;99394.13;5025191;28;20048;-45
2023/08/07 03:21:02;;;;;;;7.05;5.22;;;;;;;23.39;71.30;99397.34;4992600;28;20111;-43
2023/08/07 03:23:29;;;;;;;6.45;4.43;;;;;;;23.34;71.38;99386.31;5024739;28;20045;-44
2023/08/07 03:26:08;;;;;;;7.55;5.22;;;;;;;23.47;71.76;99410.78;5009865;28;20421;-44
2023/08/07 03:28:35;;;;;;;6.85;4.22;;;;;;;23.46;71.51;99403.78;5026239;28;20053;-44
2023/08/07 03:31:02;;;;;;;10.35;4.82;;;;;;;23.50;70.81;99399.88;5026908;28;20047;-43
2023/08/07 03:33:31;;;;;;;9.40;4.35;;;;;;;23.57;70.16;99408.09;5017074;28;20041;-44
2023/08/07 03:35:57;;;;;;;6.63;4.90;;;;;;;23.58;69.71;99394.69;5024713;28;20041;-46
2023/08/07 03:38:23;;;;;;;6.72;4.55;;;;;;;23.66;69.50;99409.09;5025577;28;20053;-43
2023/08/07 03:40:52;;;;;;;7.22;4.85;;;;;;;23.68;69.38;99396.50;5010867;28;20041;-45
2023/08/07 03:43:18;;;;;;;6.90;5.15;;;;;;;23.71;69.63;99396.22;4990062;28;20056;-43
2023/08/07 03:45:44;;;;;;;9.48;4.82;;;;;;;23.60;69.30;99374.13;5010636;28;20049;-48
2023/08/07 03:48:10;;;;;;;7.13;4.70;;;;;;;23.80;68.48;99398.84;5006371;28;20713;-43
2023/08/07 03:50:39;;;;;;;6.63;4.45;;;;;;;23.88;67.95;99392.81;4994123;28;20087;-47
2023/08/07 03:53:07;;;;;;;7.78;4.20;;;;;;;23.65;67.62;99360.47;5026161;28;20045;-42
2023/08/07 03:55:37;;;;;;;10.57;4.32;;;;;;;23.98;66.89;99402.41;5026296;28;20064;-42
2023/08/07 03:58:02;;;;;;;9.77;3.95;;;;;;;23.88;66.26;99371.56;4997856;28;20057;-42
2023/08/07 04:00:29;;;;;;;7.03;4.38;;;;;;;24.11;65.87;99395.97;5026717;28;20040;-42
2023/08/07 04:02:56;;;;;;;6.95;3.65;;;;;;;24.17;65.77;99398.03;5025479;28;20213;-44
2023/08/07 04:05:22;;;;;;;8.55;4.25;;;;;;;24.20;65.56;99395.09;5026737;28;20037;-46
2023/08/07 04:07:48;;;;;;;7.93;4.57;;;;;;;24.24;65.41;99394.66;4993402;28;20072;-44
2023/08/07 04:10:14;;;;;;;6.28;4.07;;;;;;;24.28;65.66;99389.91;5050067;28;20056;-43
2023/08/07 04:12:40;;;;;;;9.23;4.30;;;;;;;24.32;65.53;99396.59;5009784;28;20041;-44
2023/08/07 04:15:06;;;;;;;8.80;4.28;;;;;;;24.38;65.45;99401.34;5026213;28;20041;-42
2023/08/07 04:17:32;;;;;;;7.55;4.07;;;;;;;24.31;65.11;99387.78;5023962;28;20722;-46
2023/08/07 04:19:59;;;;;;;8.23;3.63;;;;;;;24.48;64.50;99404.78;5026428;28;20538;-44
2023/08/07 04:22:25;;;;;;;9.40;4.22;;;;;;;24.53;63.80;99399.03;5023083;28;20560;-47
2023/08/07 04:24:51;;;;;;;4.60;3.70;;;;;;;24.60;63.25;99400.13;5023661;28;20516;-43
2023/08/07 04:27:17;;;;;;;7.95;3.78;;;;;;;24.49;63.09;99377.22;5025872;28;20033;-45
2023/08/07 04:29:43;;;;;;;10.60;4.00;;;;;;;24.72;63.03;99404.22;5027702;28;20539;-45
2023/08/07 04:32:09;;;;;;;10.60;4.38;;;;;;;24.75;63.26;99410.09;5023844;28;20056;-45
2023/08/07 04:34:35;;;;;;;5.00;3.80;;;;;;;24.80;62.56;99399.00;5012401;28;20037;-42
2023/08/07 04:37:01;;;;;;;8.73;3.95;;;;;;;24.87;62.22;99410.69;5052952;28;20517;-49
2023/08/07 04:39:27;;;;;;;9.15;4.10;;;;;;;24.92;62.48;99402.28;5027468;28;20072;-44
2023/08/07 04:41:53;;;;;;;8.30;3.50;;;;;;;24.92;62.35;99396.97;5023649;28;20099;-43
2023/08/07 04:44:19;;;;;;;10.45;3.92;;;;;;;24.99;62.03;99401.56;5024309;28;20485;-49
2023/08/07 04:46:45;;;;;;;8.65;3.65;;;;;;;25.03;61.69;99389.63;5029189;28;20048;-44
2023/08/07 04:49:11;;;;;;;8.32;4.00;;;;;;;25.14;61.54;99396.53;5029262;28;20041;-42
2023/08/07 04:51:36;;;;;;;9.30;3.85;;;;;;;25.21;60.72;99400.28;5027129;28;20034;-44
2023/08/07 04:54:02;;;;;;;6.30;3.50;;;;;;;25.27;60.22;99394.34;5054440;28;20072;-43
2023/08/07 04:56:28;;;;;;;10.35;3.70;;;;;;;25.33;59.89;99391.06;5030464;28;20204;-43
2023/08/07 04:58:54;;;;;;;7.18;3.75;;;;;;;25.31;59.90;99385.06;5029779;28;20091;-46
2023/08/07 05:01:20;;;;;;;11.13;3.80;;;;;;;25.40;59.46;99383.28;5011522;28;20501;-45
2023/08/07 05:03:47;;;;;;;9.68;3.35;;;;;;;25.48;59.36;99378.88;5012583;28;20064;-45
2023/08/07 05:06:13;;;;;;;6.63;3.30;;;;;;;25.42;59.04;99354.69;5012330;28;20049;-43
2023/08/07 05:08:38;;;;;;;5.00;2.90;;;;;;;25.62;57.64;99377.50;5031008;28;20060;-44
2023/08/07 05:11:04;;;;;;;7.38;3.25;;;;;;;25.66;57.68;99384.19;5029610;28;20068;-42
2023/08/07 05:13:30;;;;;;;6.15;2.97;;;;;;;25.70;57.54;99380.22;5029597;28;20056;-44
2023/08/07 05:15:56;;;;;;;4.80;2.95;;;;;;;25.82;57.04;99383.47;5026510;28;20188;-45
2023/08/07 05:18:22;;;;;;;4.20;2.90;;;;;;;25.88;56.50;99380.16;5029199;28;20044;-45
2023/08/07 05:20:48;;;;;;;4.40;2.85;;;;;;;25.96;56.38;99382.91;5013234;28;20075;-45
2023/08/07 05:23:14;;;;;;;7.10;2.90;;;;;;;25.99;55.97;99374.59;5028370;28;20037;-44
2023/08/07 05:25:40;;;;;;;8.73;3.40;;;;;;;26.09;55.65;99369.97;5029527;28;20045;-44
2023/08/07 05:28:06;;;;;;;3.63;2.90;;;;;;;26.17;55.07;99373.50;5023666;28;20420;-42
2023/08/07 05:30:32;;;;;;;4.97;2.80;;;;;;;26.23;54.86;99368.56;5029552;28;20037;-43
2023/08/07 05:32:58;;;;;;;7.95;3.15;;;;;;;26.14;54.09;99352.50;5026817;28;20767;-43
2023/08/07 05:35:24;;;;;;;4.88;3.00;;;;;;;26.11;53.91;99336.84;5029572;28;20041;-46
2023/08/07 05:37:50;;;;;;;5.13;2.75;;;;;;;26.40;53.37;99367.63;5030387;28;20516;-46
2023/08/07 05:40:16;;;;;;;8.45;2.85;;;;;;;26.42;52.95;99373.66;5029088;28;20047;-42
2023/08/07 05:42:42;;;;;;;8.10;2.80;;;;;;;26.45;52.79;99366.16;5023734;28;20069;-42
2023/08/07 05:45:08;;;;;;;5.40;2.63;;;;;;;26.35;52.16;99337.97;5015887;28;20045;-43
2023/08/07 05:47:36;;;;;;;4.97;2.63;;;;;;;26.60;52.00;99365.53;5029700;28;20029;-44
2023/08/07 05:50:02;;;;;;;4.43;2.88;;;;;;;26.47;51.61;99328.69;5027735;28;20041;-45
2023/08/07 05:52:34;;;;;;;7.35;2.60;;;;;;;26.69;51.00;99354.75;5029323;28;20041;-43
2023/08/07 05:55:00;;;;;;;7.22;2.88;;;;;;;26.74;50.99;99354.25;5023686;28;20045;-41
2023/08/07 05:57:26;;;;;;;4.00;2.75;;;;;;;26.85;50.87;99348.59;5029100;28;20099;-43
2023/08/07 05:59:52;;;;;;;7.97;2.60;;;;;;;26.91;50.67;99342.63;5029123;28;20456;-47
2023/08/07 06:02:19;;;;;;;4.57;2.88;;;;;;;27.04;50.20;99358.16;5018939;28;20033;-47
2023/08/07 06:04:45;;;;;;;4.53;2.33;;;;;;;26.92;50.04;99318.44;5026638;28;20054;-43
2023/08/07 06:07:11;;;;;;;4.93;2.80;;;;;;;27.21;49.66;99347.34;5028834;28;20041;-46
2023/08/07 06:09:37;;;;;;;8.15;2.65;;;;;;;27.11;49.74;99309.25;5009605;28;20052;-42
2023/08/07 06:12:04;;;;;;;4.68;2.72;;;;;;;27.28;49.51;99318.09;5028836;28;20623;-43
2023/08/07 06:14:30;;;;;;;6.65;2.72;;;;;;;27.58;49.68;99348.69;5028326;28;20096;-44
2023/08/07 06:16:57;;;;;;;5.28;3.20;;;;;;;27.76;49.86;99335.94;5028767;28;20037;-45
2023/08/07 06:19:24;;;;;;;6.15;2.95;;;;;;;27.98;50.27;99339.72;5022675;28;20075;-43
2023/08/07 06:21:50;;;;;;;5.93;2.88;;;;;;;28.18;50.00;99347.19;5030030;28;20037;-43
2023/08/07 06:24:16;;;;;;;7.07;3.22;;;;;;;28.42;49.96;99340.88;4999546;28;20037;-46
2023/08/07 06:26:42;;;;;;;5.97;3.10;;;;;;;28.57;49.82;99339.16;5018828;28;20171;-43
2023/08/07 06:29:08;;;;;;;4.82;3.17;;;;;;;28.63;49.13;99319.69;5029658;28;20128;-44
2023/08/07 06:31:34;;;;;;;4.63;2.60;;;;;;;29.02;48.29;99343.72;5028651;28;20513;-43
2023/08/07 06:34:00;;;;;;;5.95;3.75;;;;;;;29.39;46.26;99309.97;5026037;28;20041;-44
2023/08/07 06:36:26;;;;;;;7.10;2.72;;;;;;;30.68;44.60;99337.97;4994924;28;20053;-43
2023/08/07 06:38:53;;;;;;;9.02;2.80;;;;;;;31.78;42.63;99354.50;5028184;28;20049;-43
2023/08/07 06:41:19;;;;;;;4.63;2.45;;;;;;;32.72;40.95;99349.44;5009816;28;20065;-46
2023/08/07 06:43:45;;;;;;;10.27;3.03;;;;;;;33.36;39.69;99336.28;5056056;28;20049;-42
2023/08/07 06:46:12;;;;;;;5.03;3.25;;;;;;;34.29;38.17;99347.78;5026870;28;20042;-47
2023/08/07 06:48:38;;;;;;;6.60;3.10;;;;;;;34.99;36.82;99343.28;5023986;28;20748;-47
2023/08/07 06:51:04;;;;;;;10.45;3.17;;;;;;;35.67;35.52;99345.06;5034073;28;20455;-47
2023/08/07 06:53:30;;;;;;;10.70;2.92;;;;;;;36.28;33.71;99346.09;5023551;28;20521;-43
2023/08/07 06:55:57;;;;;;;5.18;2.60;;;;;;;36.83;32.69;99345.00;5024633;28;20065;-47
2023/08/07 06:58:23;;;;;;;7.50;3.15;;;;;;;37.43;31.61;99315.06;5019516;28;20049;-47
2023/08/07 07:00:49;;;;;;;6.50;2.47;;;;;;;37.52;30.46;99346.22;5025285;28;20523;-44
2023/08/07 07:03:15;;;;;;;5.70;2.53;;;;;;;38.17;29.92;99343.38;5031882;28;20049;-44
2023/08/07 07:05:42;;;;;;;8.38;2.80;;;;;;;38.98;28.36;99334.97;5022312;28;20091;-43
2023/08/07 07:08:09;;;;;;;6.38;2.45;;;;;;;39.16;27.80;99335.78;5028414;28;20045;-44
2023/08/07 07:10:35;;;;;;;14.70;3.10;;;;;;;39.21;26.93;99328.53;5026184;28;20049;-46
2023/08/07 07:13:01;;;;;;;6.22;2.70;;;;;;;39.41;26.87;99332.72;5027926;28;20033;-41
2023/08/07 07:15:27;;;;;;;7.20;2.30;;;;;;;39.74;26.32;99328.03;5026478;28;20373;-47
2023/08/07 07:17:53;;;;;;;8.00;2.65;;;;;;;40.08;26.04;99331.53;5027836;28;20041;-45
2023/08/07 07:20:20;;;;;;;8.80;2.72;;;;;;;40.34;25.67;99319.06;5005853;28;20163;-44
2023/08/07 07:22:46;;;;;;;5.43;2.80;;;;;;;39.95;25.62;99315.53;5018409;28;20401;-43
2023/08/07 07:25:12;;;;;;;11.43;3.28;;;;;;;40.40;25.47;99317.22;5028592;28;20526;-41
2023/08/07 07:27:39;;;;;;;9.07;3.00;;;;;;;41.28;24.75;99319.50;5027766;28;20041;-42
2023/08/07 07:30:05;;;;;;;6.97;3.23;;;;;;;42.30;24.29;99312.75;5028726;28;20590;-43
2023/08/07 07:32:32;;;;;;;9.52;3.05;;;;;;;43.02;23.14;99303.63;5027280;28;20791;-43
2023/08/07 07:34:58;;;;;;;7.88;3.08;;;;;;;42.96;23.12;99302.78;5020890;28;20045;-43
2023/08/07 07:37:24;;;;;;;5.70;2.85;;;;;;;43.14;22.74;99317.84;5025164;28;20516;-42
2023/08/07 07:39:50;;;;;;;5.88;3.00;;;;;;;42.68;23.12;99304.13;5021591;28;20064;-42
2023/08/07 07:42:16;;;;;;;6.10;3.50;;;;;;;43.78;22.54;99314.50;5022939;28;20041;-44
2023/08/07 07:44:41;;;;;;;12.45;3.70;;;;;;;44.56;21.78;99320.22;5025774;28;20056;-42
2023/08/07 07:47:08;;;;;;;6.50;3.38;;;;;;;44.84;21.17;99313.22;5020734;28;20120;-41
2023/08/07 07:49:34;;;;;;;5.65;3.20;;;;;;;45.09;20.95;99307.56;5008922;28;20102;-43
2023/08/07 07:52:00;;;;;;;6.30;3.20;;;;;;;45.25;20.64;99300.00;5021931;28;20045;-42
2023/08/07 07:54:26;;;;;;;3.38;2.78;;;;;;;45.31;20.17;99324.38;5023226;28;20077;-43
2023/08/07 07:56:51;;;;;;;5.30;3.55;;;;;;;44.97;20.51;99315.31;5013391;28;20041;-42
2023/08/07 07:59:17;;;;;;;4.45;3.05;;;;;;;45.03;20.86;99309.53;5024509;28;20592;-41
2023/08/07 08:01:43;;;;;;;7.03;3.08;;;;;;;45.31;20.23;99309.84;5024694;28;20532;-41
2023/08/07 08:04:10;;;;;;;5.95;2.92;;;;;;;45.14;20.44;99313.00;5025609;28;20071;-43
2023/08/07 08:06:36;;;;;;;5.28;3.30;;;;;;;44.39;20.91;99306.88;5025415;28;20586;-40
2023/08/07 08:09:04;;;;;;;6.78;2.78;;;;;;;44.66;20.50;99276.31;5023622;28;20049;-45
2023/08/07 08:11:31;;;;;;;4.68;3.03;;;;;;;45.21;20.50;99299.78;5018209;28;20039;-44
2023/08/07 08:13:57;;;;;;;5.97;3.03;;;;;;;44.95;20.37;99301.06;5026834;28;20033;-40
2023/08/07 08:16:23;;;;;;;6.35;2.90;;;;;;;45.25;20.38;99278.03;5018403;28;20046;-41
2023/08/07 08:18:49;;;;;;;8.55;2.88;;;;;;;45.41;20.46;99293.25;5003687;28;20041;-43
2023/08/07 08:21:15;;;;;;;6.60;3.33;;;;;;;45.63;19.64;99287.28;5028074;28;20033;-45
2023/08/07 08:23:41;;;;;;;4.30;2.80;;;;;;;45.73;19.15;99278.94;5030401;28;20045;-41
2023/08/07 08:26:07;;;;;;;7.80;3.28;;;;;;;45.79;19.41;99297.84;5022433;28;20061;-44
2023/08/07 08:28:33;;;;;;;12.40;3.28;;;;;;;45.86;19.44;99276.31;5022845;28;20060;-44
2023/08/07 08:30:59;;;;;;;5.03;3.05;;;;;;;46.11;19.41;99290.84;5012550;28;20045;-45
2023/08/07 08:33:25;;;;;;;6.03;3.50;;;;;;;46.44;19.00;99287.09;5030708;28;20049;-45
2023/08/07 08:35:51;;;;;;;5.35;3.08;;;;;;;46.83;18.87;99284.06;5025305;28;20120;-43
2023/08/07 08:38:17;;;;;;;5.82;3.42;;;;;;;46.95;18.20;99287.22;5028954;28;20583;-40
2023/08/07 08:40:44;;;;;;;6.75;3.53;;;;;;;47.06;18.24;99276.81;5025678;28;20436;-43
2023/08/07 08:43:12;;;;;;;6.55;3.13;;;;;;;46.76;18.41;99272.59;5030135;28;20532;-42
2023/08/07 08:45:40;;;;;;;9.45;3.28;;;;;;;46.70;18.33;99271.88;5023778;28;20049;-41
2023/08/07 08:48:07;;;;;;;3.95;3.30;;;;;;;46.73;18.08;99257.53;5012220;28;20041;-41
2023/08/07 08:50:34;;;;;;;7.72;3.35;;;;;;;46.89;18.10;99263.59;5023888;28;20435;-43
2023/08/07 08:53:00;;;;;;;13.20;3.23;;;;;;;46.84;18.32;99266.44;5011377;28;20049;-45
2023/08/07 08:55:27;;;;;;;4.80;3.03;;;;;;;47.51;17.95;99253.97;5010875;28;20383;-44
2023/08/07 08:57:58;;;;;;;7.15;3.75;;;;;;;48.07;17.53;99250.09;5028321;28;20053;-41
2023/08/07 09:00:25;;;;;;;4.63;3.15;;;;;;;48.17;17.36;99257.31;5025180;28;20192;-41
2023/08/07 09:02:52;;;;;;;3.53;3.20;;;;;;;47.64;17.33;99263.38;5008890;28;20062;-44
2023/08/07 09:05:22;;;;;;;5.00;3.10;;;;;;;46.88;17.76;99244.63;5026643;28;20050;-42
2023/08/07 09:07:49;;;;;;;13.65;3.20;;;;;;;47.22;17.79;99260.81;5012822;28;20049;-43
2023/08/07 09:10:16;;;;;;;;;;;;;;;47.74;17.30;99254.09;5030541;28;20530;-44
2023/08/07 09:12:49;;;;;;;9.82;3.40;;;;;;;47.70;17.15;99253.88;5025469;28;20073;-45
2023/08/07 09:15:16;;;;;;;3.70;3.30;;;;;;;47.79;17.04;99234.72;5026170;28;20048;-45
2023/08/07 09:17:42;;;;;;;;;;;;;;;47.48;17.18;99227.00;5014086;28;20420;-46
2023/08/07 09:20:13;;;;;;;4.63;3.30;;;;;;;47.69;16.86;99243.97;5026145;28;19924;-42
2023/08/07 09:22:42;;;;;;;5.28;3.00;;;;;;;46.55;17.59;99235.53;5022879;28;20175;-41
2023/08/07 09:25:09;;;;;;;6.07;3.10;;;;;;;47.29;17.72;99234.56;5030975;28;20049;-43
2023/08/07 09:27:38;;;;;;;6.13;3.28;;;;;;;47.30;17.24;99216.91;5026867;28;20037;-43
2023/08/07 09:30:10;;;;;;;8.55;3.28;;;;;;;47.95;16.62;99239.56;5024400;28;20049;-44
2023/08/07 09:32:38;;;;;;;4.78;3.38;;;;;;;47.21;17.03;99224.22;5027771;28;20038;-41
2023/08/07 09:35:05;;;;;;;4.75;3.30;;;;;;;47.92;16.63;99225.59;5025678;28;20060;-41
2023/08/07 09:37:31;;;;;;;6.72;3.22;;;;;;;47.97;16.63;99229.03;5022826;28;20033;-43
2023/08/07 09:40:00;;;;;;;10.07;3.33;;;;;;;48.88;16.43;99226.13;5026346;28;20044;-44
2023/08/07 09:42:30;;;;;;;9.10;3.90;;;;;;;49.52;15.59;99215.56;5049691;28;20048;-43
2023/08/07 09:44:56;;;;;;;4.20;3.60;;;;;;;49.24;16.44;99212.19;5054325;28;20096;-42
2023/08/07 09:47:22;;;;;;;3.87;3.40;;;;;;;48.93;16.05;99223.22;5024103;28;20037;-47
2023/08/07 09:49:48;;;;;;;6.13;3.77;;;;;;;48.94;15.86;99216.59;5011957;28;20037;-41
2023/08/07 09:52:15;;;;;;;5.10;3.80;;;;;;;48.65;16.25;99181.13;5025246;28;20049;-42
2023/08/07 09:54:41;;;;;;;6.15;3.50;;;;;;;49.37;15.82;99191.91;5008517;28;20041;-44
2023/08/07 09:57:08;;;;;;;8.88;3.65;;;;;;;50.08;15.41;99205.63;5019039;28;20517;-38
2023/08/07 09:59:34;;;;;;;7.70;3.83;;;;;;;50.52;15.38;99202.56;5022587;28;20104;-40
2023/08/07 10:02:02;;;;;;;5.70;3.70;;;;;;;50.37;15.13;99198.31;5018735;28;20049;-42
2023/08/07 10:04:29;;;;;;;10.23;4.40;;;;;;;50.19;15.14;99171.00;5000700;28;20544;-43
2023/08/07 10:06:56;;;;;;;4.68;3.92;;;;;;;50.53;14.92;99208.91;5024317;28;20549;-42
2023/08/07 10:09:22;;;;;;;;;;;;;;;50.20;15.16;99187.25;5024793;28;20136;-41
2023/08/07 10:11:49;;;;;;;5.20;4.00;;;;;;;50.53;15.02;99186.78;5028407;28;20419;-40
2023/08/07 10:14:16;;;;;;;4.20;3.75;;;;;;;50.60;14.66;99189.88;5054521;28;20037;-46
2023/08/07 10:16:42;;;;;;;7.40;4.13;;;;;;;50.46;14.96;99162.38;5020617;28;20064;-41
2023/08/07 10:19:09;;;;;;;4.20;3.80;;;;;;;50.47;14.35;99188.09;5019427;28;20086;-39
2023/08/07 10:21:38;;;;;;;;;;;;;;;50.16;14.92;99178.00;4995785;28;20045;-37
2023/08/07 10:24:05;;;;;;;8.48;4.10;;;;;;;50.50;15.14;99191.03;5023215;28;20413;-40
2023/08/07 10:26:35;;;;;;;5.95;4.07;;;;;;;50.99;14.25;99177.72;5027669;28;20045;-44
2023/08/07 10:29:06;;;;;;;4.45;3.90;;;;;;;50.85;14.76;99167.69;5022906;28;20045;-41
2023/08/07 10:31:33;;;;;;;6.10;3.83;;;;;;;51.09;14.16;99166.28;5016750;28;20048;-43
2023/08/07 10:33:59;;;;;;;7.32;4.10;;;;;;;50.89;14.36;99165.03;5025186;28;20033;-41
2023/08/07 10:36:33;;;;;;;6.13;4.20;;;;;;;51.24;14.58;99179.63;5024328;28;20092;-43
2023/08/07 10:39:12;;;;;;;4.78;4.10;;;;;;;51.08;14.18;99173.78;5026757;28;20042;-41
2023/08/07 10:41:45;;;;;;;4.00;3.80;;;;;;;50.93;14.02;99170.75;5028253;28;20033;-41
2023/08/07 10:44:25;;;;;;;4.22;3.75;;;;;;;50.92;14.18;99169.94;5030295;28;20041;-42
2023/08/07 10:46:55;;;;;;;4.22;3.75;;;;;;;50.61;14.37;99156.31;5016985;28;20048;-42
2023/08/07 10:49:39;;;;;;;4.03;3.67;;;;;;;50.57;14.64;99154.53;5049359;28;20050;-46
2023/08/07 10:52:15;;;;;;;5.38;3.80;;;;;;;50.44;14.39;99151.63;5024777;28;20049;-43
2023/08/07 10:54:46;;;;;;;3.72;3.42;;;;;;;49.08;15.00;99155.75;5026129;28;20571;-42
2023/08/07 10:57:17;;;;;;;4.35;3.47;;;;;;;48.00;15.87;99131.13;5034377;28;20135;-43
2023/08/07 11:00:01;;;;;;;4.05;3.30;;;;;;;48.48;16.08;99136.84;5032897;28;20071;-43
2023/08/07 11:02:33;;;;;;;3.65;3.03;;;;;;;47.97;15.62;99107.72;5015446;28;20096;-43
2023/08/07 11:04:59;;;;;;;8.40;3.40;;;;;;;47.97;15.98;99104.16;5031257;28;20536;-41
2023/08/07 11:07:27;;;;;;;5.93;3.35;;;;;;;48.17;15.70;99108.38;5020878;28;20132;-42
2023/08/07 11:09:54;;;;;;;5.30;3.40;;;;;;;48.45;15.60;99096.13;5020060;28;20048;-43
2023/08/07 11:12:20;;;;;;;4.10;3.47;;;;;;;49.25;15.17;99114.38;5026408;28;20045;-44
2023/08/07 11:14:46;;;;;;;5.65;3.50;;;;;;;49.19;15.42;99124.75;5018649;28;20586;-47
2023/08/07 11:17:12;;;;;;;9.43;3.30;;;;;;;48.36;15.72;99125.59;5012150;28;20087;-45
2023/08/07 11:19:38;;;;;;;5.78;3.60;;;;;;;48.39;15.85;99098.19;4997301;28;20045;-43
2023/08/07 11:22:05;;;;;;;4.93;3.35;;;;;;;48.61;15.70;99100.09;5026982;28;20048;-44
2023/08/07 11:24:31;;;;;;;3.80;3.13;;;;;;;48.53;15.64;99106.38;5027020;28;20440;-48
2023/08/07 11:26:58;;;;;;;5.15;3.20;;;;;;;48.61;15.51;99102.84;5026580;28;20041;-42
2023/08/07 11:29:25;;;;;;;5.55;3.28;;;;;;;48.57;15.12;99110.16;5021698;28;20049;-44
2023/08/07 11:31:51;;;;;;;6.38;3.03;;;;;;;48.07;15.71;99068.09;5026652;28;20041;-43
2023/08/07 11:34:18;;;;;;;9.75;3.17;;;;;;;48.45;15.73;99095.28;5021429;28;20508;-43